sensor_id;sensor_type;location;lat;lon;timestamp;pressure;altitude;pressure_sealevel;temperature
15079;BMP180;6932;51.438;5.470;2023-02-21T00:01:56;101718.00;;;14.20
15079;BMP180;6932;51.438;5.470;2023-02-21T00:04:41;101721.00;;;14.20
15079;BMP180;6932;51.438;5.470;2023-02-21T00:07:25;101718.00;;;14.20
15079;BMP180;6932;51.438;5.470;2023-02-21T00:10:14;101724.00;;;14.20
15079;BMP180;6932;51.438;5.470;2023-02-21T00:12:59;101723.00;;;14.20
15079;BMP180;6932;51.438;5.470;2023-02-21T00:15:44;101720.00;;;14.20
15079;BMP180;6932;51.438;5.470;2023-02-21T00:18:34;101714.00;;;14.20
15079;BMP180;6932;51.438;5.470;2023-02-21T00:21:18;101723.00;;;14.20
15079;BMP180;6932;51.438;5.470;2023-02-21T00:24:02;101726.00;;;14.20
15079;BMP180;6932;51.438;5.470;2023-02-21T00:26:47;101728.00;;;14.20
15079;BMP180;6932;51.438;5.470;2023-02-21T00:29:31;101731.00;;;14.10
15079;BMP180;6932;51.438;5.470;2023-02-21T00:32:16;101723.00;;;14.10
15079;BMP180;6932;51.438;5.470;2023-02-21T00:35:00;101726.00;;;14.10
15079;BMP180;6932;51.438;5.470;2023-02-21T00:37:48;101724.00;;;14.10
15079;BMP180;6932;51.438;5.470;2023-02-21T00:40:33;101713.00;;;14.10
15079;BMP180;6932;51.438;5.470;2023-02-21T00:43:17;101719.00;;;14.10
15079;BMP180;6932;51.438;5.470;2023-02-21T00:46:01;101727.00;;;14.10
15079;BMP180;6932;51.438;5.470;2023-02-21T00:48:45;101717.00;;;14.10
15079;BMP180;6932;51.438;5.470;2023-02-21T00:51:29;101712.00;;;14.10
15079;BMP180;6932;51.438;5.470;2023-02-21T00:54:13;101719.00;;;14.10
15079;BMP180;6932;51.438;5.470;2023-02-21T00:56:57;101704.00;;;14.10
15079;BMP180;6932;51.438;5.470;2023-02-21T00:59:41;101713.00;;;14.10
15079;BMP180;6932;51.438;5.470;2023-02-21T01:02:25;101696.00;;;14.00
15079;BMP180;6932;51.438;5.470;2023-02-21T01:05:10;101697.00;;;14.00
15079;BMP180;6932;51.438;5.470;2023-02-21T01:07:54;101698.00;;;14.00
15079;BMP180;6932;51.438;5.470;2023-02-21T01:10:38;101698.00;;;14.00
15079;BMP180;6932;51.438;5.470;2023-02-21T01:13:22;101692.00;;;14.00
15079;BMP180;6932;51.438;5.470;2023-02-21T01:16:08;101693.00;;;14.00
15079;BMP180;6932;51.438;5.470;2023-02-21T01:18:52;101695.00;;;14.00
15079;BMP180;6932;51.438;5.470;2023-02-21T01:21:36;101702.00;;;14.00
15079;BMP180;6932;51.438;5.470;2023-02-21T01:24:20;101700.00;;;14.00
15079;BMP180;6932;51.438;5.470;2023-02-21T01:27:04;101699.00;;;13.90
15079;BMP180;6932;51.438;5.470;2023-02-21T01:29:49;101700.00;;;13.90
15079;BMP180;6932;51.438;5.470;2023-02-21T01:32:33;101696.00;;;13.90
15079;BMP180;6932;51.438;5.470;2023-02-21T01:35:17;101692.00;;;13.90
15079;BMP180;6932;51.438;5.470;2023-02-21T01:38:01;101686.00;;;13.90
15079;BMP180;6932;51.438;5.470;2023-02-21T01:40:46;101697.00;;;13.90
15079;BMP180;6932;51.438;5.470;2023-02-21T01:43:30;101679.00;;;13.90
15079;BMP180;6932;51.438;5.470;2023-02-21T01:46:17;101682.00;;;13.90
15079;BMP180;6932;51.438;5.470;2023-02-21T01:49:13;101683.00;;;13.90
15079;BMP180;6932;51.438;5.470;2023-02-21T01:52:01;101687.00;;;13.90
15079;BMP180;6932;51.438;5.470;2023-02-21T01:54:51;101690.00;;;13.90
15079;BMP180;6932;51.438;5.470;2023-02-21T01:57:38;101682.00;;;13.90
15079;BMP180;6932;51.438;5.470;2023-02-21T02:00:23;101682.00;;;13.90
15079;BMP180;6932;51.438;5.470;2023-02-21T02:03:12;101691.00;;;13.90
15079;BMP180;6932;51.438;5.470;2023-02-21T02:06:09;101682.00;;;13.90
15079;BMP180;6932;51.438;5.470;2023-02-21T02:08:55;101672.00;;;13.80
15079;BMP180;6932;51.438;5.470;2023-02-21T02:18:19;101672.00;;;13.80
15079;BMP180;6932;51.438;5.470;2023-02-21T02:21:21;101656.00;;;13.80
15079;BMP180;6932;51.438;5.470;2023-02-21T02:36:19;101660.00;;;13.70
15079;BMP180;6932;51.438;5.470;2023-02-21T02:39:04;101656.00;;;13.80
15079;BMP180;6932;51.438;5.470;2023-02-21T02:44:39;101640.00;;;13.70
15079;BMP180;6932;51.438;5.470;2023-02-21T02:47:12;101645.00;;;13.70
15079;BMP180;6932;51.438;5.470;2023-02-21T02:49:42;101639.00;;;13.70
15079;BMP180;6932;51.438;5.470;2023-02-21T02:52:09;101633.00;;;13.70
15079;BMP180;6932;51.438;5.470;2023-02-21T02:54:35;101634.00;;;13.70
15079;BMP180;6932;51.438;5.470;2023-02-21T02:57:04;101634.00;;;13.80
15079;BMP180;6932;51.438;5.470;2023-02-21T02:59:37;101642.00;;;13.80
15079;BMP180;6932;51.438;5.470;2023-02-21T03:05:19;101624.00;;;13.70
15079;BMP180;6932;51.438;5.470;2023-02-21T03:08:26;101628.00;;;13.70
15079;BMP180;6932;51.438;5.470;2023-02-21T03:11:14;101619.00;;;13.70
15079;BMP180;6932;51.438;5.470;2023-02-21T03:16:36;101631.00;;;13.70
15079;BMP180;6932;51.438;5.470;2023-02-21T03:19:12;101633.00;;;13.70
15079;BMP180;6932;51.438;5.470;2023-02-21T03:22:06;101635.00;;;13.70
15079;BMP180;6932;51.438;5.470;2023-02-21T03:24:34;101639.00;;;13.70
15079;BMP180;6932;51.438;5.470;2023-02-21T03:27:06;101640.00;;;13.70
15079;BMP180;6932;51.438;5.470;2023-02-21T03:29:33;101635.00;;;13.70
15079;BMP180;6932;51.438;5.470;2023-02-21T03:32:10;101638.00;;;13.70
15079;BMP180;6932;51.438;5.470;2023-02-21T03:34:39;101628.00;;;13.70
15079;BMP180;6932;51.438;5.470;2023-02-21T03:37:09;101632.00;;;13.70
15079;BMP180;6932;51.438;5.470;2023-02-21T03:39:35;101627.00;;;13.70
15079;BMP180;6932;51.438;5.470;2023-02-21T03:42:01;101622.00;;;13.70
15079;BMP180;6932;51.438;5.470;2023-02-21T03:44:27;101623.00;;;13.70
15079;BMP180;6932;51.438;5.470;2023-02-21T03:46:53;101620.00;;;13.70
15079;BMP180;6932;51.438;5.470;2023-02-21T03:49:19;101633.00;;;13.70
15079;BMP180;6932;51.438;5.470;2023-02-21T03:51:44;101621.00;;;13.70
15079;BMP180;6932;51.438;5.470;2023-02-21T03:54:10;101625.00;;;13.70
15079;BMP180;6932;51.438;5.470;2023-02-21T03:56:36;101622.00;;;13.70
15079;BMP180;6932;51.438;5.470;2023-02-21T03:59:02;101622.00;;;13.70
15079;BMP180;6932;51.438;5.470;2023-02-21T04:01:27;101636.00;;;13.70
15079;BMP180;6932;51.438;5.470;2023-02-21T04:03:53;101625.00;;;13.70
15079;BMP180;6932;51.438;5.470;2023-02-21T04:06:19;101625.00;;;13.70
15079;BMP180;6932;51.438;5.470;2023-02-21T04:08:45;101631.00;;;13.70
15079;BMP180;6932;51.438;5.470;2023-02-21T04:11:10;101629.00;;;13.70
15079;BMP180;6932;51.438;5.470;2023-02-21T04:13:36;101626.00;;;13.70
15079;BMP180;6932;51.438;5.470;2023-02-21T04:16:02;101621.00;;;13.70
15079;BMP180;6932;51.438;5.470;2023-02-21T04:18:28;101625.00;;;13.70
15079;BMP180;6932;51.438;5.470;2023-02-21T04:20:54;101620.00;;;13.70
15079;BMP180;6932;51.438;5.470;2023-02-21T04:23:21;101617.00;;;13.70
15079;BMP180;6932;51.438;5.470;2023-02-21T04:25:47;101627.00;;;13.70
15079;BMP180;6932;51.438;5.470;2023-02-21T04:28:13;101622.00;;;13.70
15079;BMP180;6932;51.438;5.470;2023-02-21T04:30:38;101620.00;;;13.70
15079;BMP180;6932;51.438;5.470;2023-02-21T04:33:04;101616.00;;;13.70
15079;BMP180;6932;51.438;5.470;2023-02-21T04:35:30;101613.00;;;13.70
15079;BMP180;6932;51.438;5.470;2023-02-21T04:37:56;101607.00;;;13.70
15079;BMP180;6932;51.438;5.470;2023-02-21T04:40:22;101619.00;;;13.70
15079;BMP180;6932;51.438;5.470;2023-02-21T04:42:47;101616.00;;;13.70
15079;BMP180;6932;51.438;5.470;2023-02-21T04:45:13;101606.00;;;13.70
15079;BMP180;6932;51.438;5.470;2023-02-21T04:47:39;101604.00;;;13.70
15079;BMP180;6932;51.438;5.470;2023-02-21T04:50:05;101609.00;;;13.70
15079;BMP180;6932;51.438;5.470;2023-02-21T04:52:32;101596.00;;;13.70
15079;BMP180;6932;51.438;5.470;2023-02-21T04:54:58;101602.00;;;13.70
15079;BMP180;6932;51.438;5.470;2023-02-21T04:57:23;101601.00;;;13.70
15079;BMP180;6932;51.438;5.470;2023-02-21T04:59:56;101599.00;;;13.70
15079;BMP180;6932;51.438;5.470;2023-02-21T05:02:22;101601.00;;;13.70
15079;BMP180;6932;51.438;5.470;2023-02-21T05:04:48;101595.00;;;13.60
15079;BMP180;6932;51.438;5.470;2023-02-21T05:07:14;101598.00;;;13.60
15079;BMP180;6932;51.438;5.470;2023-02-21T05:09:40;101599.00;;;13.60
15079;BMP180;6932;51.438;5.470;2023-02-21T05:12:05;101603.00;;;13.60
15079;BMP180;6932;51.438;5.470;2023-02-21T05:14:37;101599.00;;;13.60
15079;BMP180;6932;51.438;5.470;2023-02-21T05:17:04;101596.00;;;13.60
15079;BMP180;6932;51.438;5.470;2023-02-21T05:19:30;101612.00;;;13.60
15079;BMP180;6932;51.438;5.470;2023-02-21T05:22:01;101598.00;;;13.60
15079;BMP180;6932;51.438;5.470;2023-02-21T05:24:29;101596.00;;;13.60
15079;BMP180;6932;51.438;5.470;2023-02-21T05:26:56;101596.00;;;13.60
15079;BMP180;6932;51.438;5.470;2023-02-21T05:29:23;101591.00;;;13.60
15079;BMP180;6932;51.438;5.470;2023-02-21T05:31:48;101603.00;;;13.60
15079;BMP180;6932;51.438;5.470;2023-02-21T05:34:15;101604.00;;;13.60
15079;BMP180;6932;51.438;5.470;2023-02-21T05:36:44;101606.00;;;13.60
15079;BMP180;6932;51.438;5.470;2023-02-21T05:39:10;101618.00;;;13.60
15079;BMP180;6932;51.438;5.470;2023-02-21T05:41:36;101616.00;;;13.60
15079;BMP180;6932;51.438;5.470;2023-02-21T05:44:03;101627.00;;;13.60
15079;BMP180;6932;51.438;5.470;2023-02-21T05:46:33;101615.00;;;13.60
15079;BMP180;6932;51.438;5.470;2023-02-21T05:49:01;101608.00;;;13.60
15079;BMP180;6932;51.438;5.470;2023-02-21T05:51:34;101607.00;;;13.60
15079;BMP180;6932;51.438;5.470;2023-02-21T05:54:00;101607.00;;;13.60
15079;BMP180;6932;51.438;5.470;2023-02-21T05:56:26;101614.00;;;13.60
15079;BMP180;6932;51.438;5.470;2023-02-21T05:58:52;101614.00;;;13.60
15079;BMP180;6932;51.438;5.470;2023-02-21T06:01:18;101617.00;;;13.60
15079;BMP180;6932;51.438;5.470;2023-02-21T06:03:43;101604.00;;;13.50
15079;BMP180;6932;51.438;5.470;2023-02-21T06:06:09;101599.00;;;13.60
15079;BMP180;6932;51.438;5.470;2023-02-21T06:08:48;101618.00;;;13.60
15079;BMP180;6932;51.438;5.470;2023-02-21T06:11:20;101629.00;;;13.50
15079;BMP180;6932;51.438;5.470;2023-02-21T06:13:49;101621.00;;;13.50
15079;BMP180;6932;51.438;5.470;2023-02-21T06:16:15;101627.00;;;13.50
15079;BMP180;6932;51.438;5.470;2023-02-21T06:18:41;101618.00;;;13.50
15079;BMP180;6932;51.438;5.470;2023-02-21T06:21:06;101617.00;;;13.50
15079;BMP180;6932;51.438;5.470;2023-02-21T06:23:32;101624.00;;;13.50
15079;BMP180;6932;51.438;5.470;2023-02-21T06:25:58;101631.00;;;13.50
15079;BMP180;6932;51.438;5.470;2023-02-21T06:28:28;101622.00;;;13.50
15079;BMP180;6932;51.438;5.470;2023-02-21T06:30:55;101614.00;;;13.50
15079;BMP180;6932;51.438;5.470;2023-02-21T06:33:22;101625.00;;;13.50
15079;BMP180;6932;51.438;5.470;2023-02-21T06:35:48;101616.00;;;13.50
15079;BMP180;6932;51.438;5.470;2023-02-21T06:38:14;101618.00;;;13.50
15079;BMP180;6932;51.438;5.470;2023-02-21T06:40:40;101612.00;;;13.50
15079;BMP180;6932;51.438;5.470;2023-02-21T06:43:06;101622.00;;;13.50
15079;BMP180;6932;51.438;5.470;2023-02-21T06:45:32;101630.00;;;13.50
15079;BMP180;6932;51.438;5.470;2023-02-21T06:47:57;101630.00;;;13.50
15079;BMP180;6932;51.438;5.470;2023-02-21T06:50:23;101617.00;;;13.50
15079;BMP180;6932;51.438;5.470;2023-02-21T06:52:49;101623.00;;;13.50
15079;BMP180;6932;51.438;5.470;2023-02-21T06:55:20;101620.00;;;13.50
15079;BMP180;6932;51.438;5.470;2023-02-21T06:57:47;101614.00;;;13.40
15079;BMP180;6932;51.438;5.470;2023-02-21T07:00:14;101612.00;;;13.50
15079;BMP180;6932;51.438;5.470;2023-02-21T07:02:41;101612.00;;;13.50
15079;BMP180;6932;51.438;5.470;2023-02-21T07:05:07;101618.00;;;13.50
15079;BMP180;6932;51.438;5.470;2023-02-21T07:07:33;101628.00;;;13.40
15079;BMP180;6932;51.438;5.470;2023-02-21T07:09:59;101624.00;;;13.40
15079;BMP180;6932;51.438;5.470;2023-02-21T07:12:25;101619.00;;;13.40
15079;BMP180;6932;51.438;5.470;2023-02-21T07:14:53;101619.00;;;13.50
15079;BMP180;6932;51.438;5.470;2023-02-21T07:17:19;101619.00;;;13.40
15079;BMP180;6932;51.438;5.470;2023-02-21T07:19:45;101630.00;;;13.40
15079;BMP180;6932;51.438;5.470;2023-02-21T07:22:11;101631.00;;;13.40
15079;BMP180;6932;51.438;5.470;2023-02-21T07:24:37;101632.00;;;13.40
15079;BMP180;6932;51.438;5.470;2023-02-21T07:27:03;101626.00;;;13.40
15079;BMP180;6932;51.438;5.470;2023-02-21T07:29:29;101623.00;;;13.40
15079;BMP180;6932;51.438;5.470;2023-02-21T07:31:55;101626.00;;;13.40
15079;BMP180;6932;51.438;5.470;2023-02-21T07:34:21;101625.00;;;13.40
15079;BMP180;6932;51.438;5.470;2023-02-21T07:36:48;101617.00;;;13.40
15079;BMP180;6932;51.438;5.470;2023-02-21T07:39:14;101609.00;;;13.40
15079;BMP180;6932;51.438;5.470;2023-02-21T07:41:40;101620.00;;;13.30
15079;BMP180;6932;51.438;5.470;2023-02-21T07:44:06;101621.00;;;13.30
15079;BMP180;6932;51.438;5.470;2023-02-21T07:46:33;101625.00;;;13.30
15079;BMP180;6932;51.438;5.470;2023-02-21T07:48:59;101624.00;;;13.30
15079;BMP180;6932;51.438;5.470;2023-02-21T07:51:29;101637.00;;;13.30
15079;BMP180;6932;51.438;5.470;2023-02-21T07:53:56;101624.00;;;13.30
15079;BMP180;6932;51.438;5.470;2023-02-21T07:56:22;101631.00;;;13.30
15079;BMP180;6932;51.438;5.470;2023-02-21T07:58:48;101633.00;;;13.30
15079;BMP180;6932;51.438;5.470;2023-02-21T08:01:14;101632.00;;;13.30
15079;BMP180;6932;51.438;5.470;2023-02-21T08:03:40;101629.00;;;13.30
15079;BMP180;6932;51.438;5.470;2023-02-21T08:06:08;101616.00;;;13.30
15079;BMP180;6932;51.438;5.470;2023-02-21T08:08:34;101632.00;;;13.30
15079;BMP180;6932;51.438;5.470;2023-02-21T08:11:00;101618.00;;;13.30
15079;BMP180;6932;51.438;5.470;2023-02-21T08:13:26;101623.00;;;13.30
15079;BMP180;6932;51.438;5.470;2023-02-21T08:15:52;101622.00;;;13.30
15079;BMP180;6932;51.438;5.470;2023-02-21T08:18:21;101625.00;;;13.40
15079;BMP180;6932;51.438;5.470;2023-02-21T08:20:50;101627.00;;;13.40
15079;BMP180;6932;51.438;5.470;2023-02-21T08:23:17;101627.00;;;13.40
15079;BMP180;6932;51.438;5.470;2023-02-21T08:25:45;101609.00;;;13.40
15079;BMP180;6932;51.438;5.470;2023-02-21T08:28:11;101623.00;;;13.40
15079;BMP180;6932;51.438;5.470;2023-02-21T08:30:37;101636.00;;;13.40
15079;BMP180;6932;51.438;5.470;2023-02-21T08:33:03;101636.00;;;13.40
15079;BMP180;6932;51.438;5.470;2023-02-21T08:35:29;101638.00;;;13.40
15079;BMP180;6932;51.438;5.470;2023-02-21T08:37:55;101617.00;;;13.40
15079;BMP180;6932;51.438;5.470;2023-02-21T08:40:29;101606.00;;;13.40
15079;BMP180;6932;51.438;5.470;2023-02-21T08:42:58;101605.00;;;13.40
15079;BMP180;6932;51.438;5.470;2023-02-21T08:45:26;101624.00;;;13.40
15079;BMP180;6932;51.438;5.470;2023-02-21T08:47:53;101630.00;;;13.40
15079;BMP180;6932;51.438;5.470;2023-02-21T08:50:22;101625.00;;;13.40
15079;BMP180;6932;51.438;5.470;2023-02-21T08:52:49;101614.00;;;13.40
15079;BMP180;6932;51.438;5.470;2023-02-21T08:55:19;101613.00;;;13.40
15079;BMP180;6932;51.438;5.470;2023-02-21T08:57:49;101607.00;;;13.40
15079;BMP180;6932;51.438;5.470;2023-02-21T09:00:20;101618.00;;;13.40
15079;BMP180;6932;51.438;5.470;2023-02-21T09:02:51;101621.00;;;13.40
15079;BMP180;6932;51.438;5.470;2023-02-21T09:05:29;101616.00;;;13.50
15079;BMP180;6932;51.438;5.470;2023-02-21T09:07:59;101607.00;;;13.50
15079;BMP180;6932;51.438;5.470;2023-02-21T09:10:31;101599.00;;;13.50
15079;BMP180;6932;51.438;5.470;2023-02-21T09:13:03;101608.00;;;13.50
15079;BMP180;6932;51.438;5.470;2023-02-21T09:15:29;101609.00;;;13.60
15079;BMP180;6932;51.438;5.470;2023-02-21T09:17:55;101606.00;;;13.60
15079;BMP180;6932;51.438;5.470;2023-02-21T09:20:24;101606.00;;;13.60
15079;BMP180;6932;51.438;5.470;2023-02-21T09:22:51;101602.00;;;13.60
15079;BMP180;6932;51.438;5.470;2023-02-21T09:25:21;101599.00;;;13.60
15079;BMP180;6932;51.438;5.470;2023-02-21T09:27:49;101594.00;;;13.60
15079;BMP180;6932;51.438;5.470;2023-02-21T09:30:20;101592.00;;;13.60
15079;BMP180;6932;51.438;5.470;2023-02-21T09:32:49;101589.00;;;13.60
15079;BMP180;6932;51.438;5.470;2023-02-21T09:35:16;101591.00;;;13.60
15079;BMP180;6932;51.438;5.470;2023-02-21T09:37:44;101592.00;;;13.60
15079;BMP180;6932;51.438;5.470;2023-02-21T09:40:39;101597.00;;;13.70
15079;BMP180;6932;51.438;5.470;2023-02-21T09:43:13;101591.00;;;13.60
15079;BMP180;6932;51.438;5.470;2023-02-21T09:45:41;101589.00;;;13.70
15079;BMP180;6932;51.438;5.470;2023-02-21T09:48:18;101585.00;;;13.70
15079;BMP180;6932;51.438;5.470;2023-02-21T09:50:49;101584.00;;;13.70
15079;BMP180;6932;51.438;5.470;2023-02-21T09:53:26;101593.00;;;13.70
15079;BMP180;6932;51.438;5.470;2023-02-21T09:55:59;101594.00;;;13.70
15079;BMP180;6932;51.438;5.470;2023-02-21T09:58:27;101594.00;;;13.70
15079;BMP180;6932;51.438;5.470;2023-02-21T10:01:01;101596.00;;;13.70
15079;BMP180;6932;51.438;5.470;2023-02-21T10:04:09;101592.00;;;13.70
15079;BMP180;6932;51.438;5.470;2023-02-21T10:07:21;101595.00;;;13.70
15079;BMP180;6932;51.438;5.470;2023-02-21T10:09:57;101594.00;;;13.70
15079;BMP180;6932;51.438;5.470;2023-02-21T10:15:52;101603.00;;;13.70
15079;BMP180;6932;51.438;5.470;2023-02-21T10:18:37;101603.00;;;13.70
15079;BMP180;6932;51.438;5.470;2023-02-21T10:21:32;101599.00;;;13.70
15079;BMP180;6932;51.438;5.470;2023-02-21T10:24:08;101598.00;;;13.70
15079;BMP180;6932;51.438;5.470;2023-02-21T10:26:40;101601.00;;;13.70
15079;BMP180;6932;51.438;5.470;2023-02-21T10:29:21;101608.00;;;13.70
15079;BMP180;6932;51.438;5.470;2023-02-21T10:31:54;101598.00;;;13.70
15079;BMP180;6932;51.438;5.470;2023-02-21T10:34:28;101604.00;;;13.70
15079;BMP180;6932;51.438;5.470;2023-02-21T10:37:03;101592.00;;;13.70
15079;BMP180;6932;51.438;5.470;2023-02-21T10:39:45;101601.00;;;13.80
15079;BMP180;6932;51.438;5.470;2023-02-21T10:42:30;101597.00;;;13.80
15079;BMP180;6932;51.438;5.470;2023-02-21T10:45:00;101596.00;;;13.80
15079;BMP180;6932;51.438;5.470;2023-02-21T10:50:11;101607.00;;;13.80
15079;BMP180;6932;51.438;5.470;2023-02-21T10:52:49;101605.00;;;13.80
15079;BMP180;6932;51.438;5.470;2023-02-21T10:55:19;101605.00;;;13.80
15079;BMP180;6932;51.438;5.470;2023-02-21T10:57:53;101609.00;;;13.80
15079;BMP180;6932;51.438;5.470;2023-02-21T11:00:43;101593.00;;;13.80
15079;BMP180;6932;51.438;5.470;2023-02-21T11:03:23;101587.00;;;13.80
15079;BMP180;6932;51.438;5.470;2023-02-21T11:05:54;101591.00;;;13.70
15079;BMP180;6932;51.438;5.470;2023-02-21T11:08:40;101589.00;;;13.80
15079;BMP180;6932;51.438;5.470;2023-02-21T11:11:06;101592.00;;;13.80
15079;BMP180;6932;51.438;5.470;2023-02-21T11:13:33;101583.00;;;13.80
15079;BMP180;6932;51.438;5.470;2023-02-21T11:16:18;101587.00;;;13.80
15079;BMP180;6932;51.438;5.470;2023-02-21T11:18:44;101586.00;;;13.80
15079;BMP180;6932;51.438;5.470;2023-02-21T11:21:17;101580.00;;;13.80
15079;BMP180;6932;51.438;5.470;2023-02-21T11:23:54;101569.00;;;13.80
15079;BMP180;6932;51.438;5.470;2023-02-21T11:26:24;101582.00;;;13.80
15079;BMP180;6932;51.438;5.470;2023-02-21T11:28:52;101570.00;;;13.80
15079;BMP180;6932;51.438;5.470;2023-02-21T11:31:29;101565.00;;;13.80
15079;BMP180;6932;51.438;5.470;2023-02-21T11:34:03;101564.00;;;13.80
15079;BMP180;6932;51.438;5.470;2023-02-21T11:36:43;101560.00;;;13.80
15079;BMP180;6932;51.438;5.470;2023-02-21T11:39:21;101566.00;;;13.90
15079;BMP180;6932;51.438;5.470;2023-02-21T11:41:54;101558.00;;;13.90
15079;BMP180;6932;51.438;5.470;2023-02-21T11:44:37;101554.00;;;13.90
15079;BMP180;6932;51.438;5.470;2023-02-21T11:47:15;101545.00;;;13.90
15079;BMP180;6932;51.438;5.470;2023-02-21T11:50:39;101549.00;;;13.90
15079;BMP180;6932;51.438;5.470;2023-02-21T11:59:05;101536.00;;;13.90
15079;BMP180;6932;51.438;5.470;2023-02-21T12:02:11;101532.00;;;13.90
15079;BMP180;6932;51.438;5.470;2023-02-21T12:16:45;101519.00;;;14.00
15079;BMP180;6932;51.438;5.470;2023-02-21T12:22:26;101517.00;;;14.00
15079;BMP180;6932;51.438;5.470;2023-02-21T12:25:33;101527.00;;;14.00
15079;BMP180;6932;51.438;5.470;2023-02-21T12:37:19;101514.00;;;14.10
15079;BMP180;6932;51.438;5.470;2023-02-21T12:43:43;101497.00;;;14.10
15079;BMP180;6932;51.438;5.470;2023-02-21T12:46:30;101496.00;;;14.10
15079;BMP180;6932;51.438;5.470;2023-02-21T12:49:18;101499.00;;;14.10
15079;BMP180;6932;51.438;5.470;2023-02-21T12:52:01;101499.00;;;14.10
15079;BMP180;6932;51.438;5.470;2023-02-21T12:55:04;101499.00;;;14.10
15079;BMP180;6932;51.438;5.470;2023-02-21T12:57:58;101494.00;;;14.10
15079;BMP180;6932;51.438;5.470;2023-02-21T13:03:41;101493.00;;;14.10
15079;BMP180;6932;51.438;5.470;2023-02-21T13:06:32;101486.00;;;14.10
15079;BMP180;6932;51.438;5.470;2023-02-21T13:12:08;101494.00;;;14.20
15079;BMP180;6932;51.438;5.470;2023-02-21T13:17:16;101492.00;;;14.20
15079;BMP180;6932;51.438;5.470;2023-02-21T13:20:06;101491.00;;;14.20
15079;BMP180;6932;51.438;5.470;2023-02-21T13:28:57;101471.00;;;14.10
15079;BMP180;6932;51.438;5.470;2023-02-21T13:31:42;101473.00;;;14.20
15079;BMP180;6932;51.438;5.470;2023-02-21T13:34:12;101464.00;;;14.20
15079;BMP180;6932;51.438;5.470;2023-02-21T13:36:46;101458.00;;;14.20
15079;BMP180;6932;51.438;5.470;2023-02-21T13:39:26;101461.00;;;14.20
15079;BMP180;6932;51.438;5.470;2023-02-21T13:42:08;101458.00;;;14.20
15079;BMP180;6932;51.438;5.470;2023-02-21T13:44:48;101460.00;;;14.20
15079;BMP180;6932;51.438;5.470;2023-02-21T13:47:20;101452.00;;;14.20
15079;BMP180;6932;51.438;5.470;2023-02-21T14:08:45;101447.00;;;14.10
15079;BMP180;6932;51.438;5.470;2023-02-21T14:11:21;101448.00;;;14.10
15079;BMP180;6932;51.438;5.470;2023-02-21T14:14:02;101450.00;;;14.10
15079;BMP180;6932;51.438;5.470;2023-02-21T14:16:53;101442.00;;;14.10
15079;BMP180;6932;51.438;5.470;2023-02-21T14:19:47;101437.00;;;14.10
15079;BMP180;6932;51.438;5.470;2023-02-21T14:22:22;101440.00;;;14.10
15079;BMP180;6932;51.438;5.470;2023-02-21T14:25:06;101437.00;;;14.10
15079;BMP180;6932;51.438;5.470;2023-02-21T14:27:36;101434.00;;;14.10
15079;BMP180;6932;51.438;5.470;2023-02-21T14:32:42;101420.00;;;14.20
15079;BMP180;6932;51.438;5.470;2023-02-21T14:35:36;101427.00;;;14.20
15079;BMP180;6932;51.438;5.470;2023-02-21T14:38:11;101433.00;;;14.10
15079;BMP180;6932;51.438;5.470;2023-02-21T14:43:57;101418.00;;;14.10
15079;BMP180;6932;51.438;5.470;2023-02-21T14:56:23;101416.00;;;14.00
15079;BMP180;6932;51.438;5.470;2023-02-21T15:05:16;101409.00;;;13.90
15079;BMP180;6932;51.438;5.470;2023-02-21T15:10:39;101415.00;;;13.90
15079;BMP180;6932;51.438;5.470;2023-02-21T15:13:05;101410.00;;;13.90
15079;BMP180;6932;51.438;5.470;2023-02-21T15:15:38;101410.00;;;13.90
15079;BMP180;6932;51.438;5.470;2023-02-21T15:18:27;101405.00;;;13.90
15079;BMP180;6932;51.438;5.470;2023-02-21T15:21:21;101412.00;;;13.90
15079;BMP180;6932;51.438;5.470;2023-02-21T15:24:00;101411.00;;;13.90
15079;BMP180;6932;51.438;5.470;2023-02-21T15:26:31;101406.00;;;13.90
15079;BMP180;6932;51.438;5.470;2023-02-21T15:29:08;101406.00;;;13.90
15079;BMP180;6932;51.438;5.470;2023-02-21T15:32:02;101405.00;;;13.80
15079;BMP180;6932;51.438;5.470;2023-02-21T15:34:40;101393.00;;;13.80
15079;BMP180;6932;51.438;5.470;2023-02-21T15:37:35;101398.00;;;13.80
15079;BMP180;6932;51.438;5.470;2023-02-21T15:40:15;101402.00;;;13.70
15079;BMP180;6932;51.438;5.470;2023-02-21T15:42:44;101404.00;;;13.70
15079;BMP180;6932;51.438;5.470;2023-02-21T15:47:48;101401.00;;;13.70
15079;BMP180;6932;51.438;5.470;2023-02-21T15:50:31;101405.00;;;13.70
15079;BMP180;6932;51.438;5.470;2023-02-21T15:53:15;101403.00;;;13.70
15079;BMP180;6932;51.438;5.470;2023-02-21T15:55:43;101406.00;;;13.60
15079;BMP180;6932;51.438;5.470;2023-02-21T16:01:09;101386.00;;;13.60
15079;BMP180;6932;51.438;5.470;2023-02-21T16:03:43;101398.00;;;13.50
15079;BMP180;6932;51.438;5.470;2023-02-21T16:06:28;101388.00;;;13.50
15079;BMP180;6932;51.438;5.470;2023-02-21T16:09:24;101381.00;;;13.50
15079;BMP180;6932;51.438;5.470;2023-02-21T16:12:28;101382.00;;;13.50
15079;BMP180;6932;51.438;5.470;2023-02-21T16:15:25;101393.00;;;13.40
15079;BMP180;6932;51.438;5.470;2023-02-21T16:18:07;101384.00;;;13.40
15079;BMP180;6932;51.438;5.470;2023-02-21T16:20:40;101386.00;;;13.50
15079;BMP180;6932;51.438;5.470;2023-02-21T16:28:43;101395.00;;;13.50
15079;BMP180;6932;51.438;5.470;2023-02-21T16:31:16;101396.00;;;13.50
15079;BMP180;6932;51.438;5.470;2023-02-21T16:33:49;101393.00;;;13.50
15079;BMP180;6932;51.438;5.470;2023-02-21T16:36:29;101390.00;;;13.50
15079;BMP180;6932;51.438;5.470;2023-02-21T16:38:56;101291.00;;;13.50
15079;BMP180;6932;51.438;5.470;2023-02-21T16:41:23;101302.00;;;13.40
15079;BMP180;6932;51.438;5.470;2023-02-21T16:43:49;101293.00;;;13.20
15079;BMP180;6932;51.438;5.470;2023-02-21T16:46:24;101292.00;;;13.00
15079;BMP180;6932;51.438;5.470;2023-02-21T16:48:53;101291.00;;;12.80
15079;BMP180;6932;51.438;5.470;2023-02-21T16:51:19;101295.00;;;12.70
15079;BMP180;6932;51.438;5.470;2023-02-21T16:53:47;101391.00;;;12.50
15079;BMP180;6932;51.438;5.470;2023-02-21T16:56:14;101381.00;;;12.50
15079;BMP180;6932;51.438;5.470;2023-02-21T16:58:47;101388.00;;;12.60
15079;BMP180;6932;51.438;5.470;2023-02-21T17:01:24;101388.00;;;12.70
15079;BMP180;6932;51.438;5.470;2023-02-21T17:03:50;101385.00;;;12.70
15079;BMP180;6932;51.438;5.470;2023-02-21T17:06:22;101384.00;;;12.80
15079;BMP180;6932;51.438;5.470;2023-02-21T17:08:49;101374.00;;;12.90